sensor_id;sensor_type;location;lat;lon;timestamp;temperature;humidity
35607;DHT22;21729;58.392;15.656;2024-03-02T00:01:36;3.90;38.00
35607;DHT22;21729;58.392;15.656;2024-03-02T00:04:04;4.00;40.60
35607;DHT22;21729;58.392;15.656;2024-03-02T00:06:32;4.00;41.90
35607;DHT22;21729;58.392;15.656;2024-03-02T00:08:59;3.90;43.20
35607;DHT22;21729;58.392;15.656;2024-03-02T00:11:26;3.90;43.90
35607;DHT22;21729;58.392;15.656;2024-03-02T00:13:53;3.90;45.80
35607;DHT22;21729;58.392;15.656;2024-03-02T00:16:23;4.00;47.70
35607;DHT22;21729;58.392;15.656;2024-03-02T00:18:50;4.00;49.90
35607;DHT22;21729;58.392;15.656;2024-03-02T00:21:18;4.00;52.90
35607;DHT22;21729;58.392;15.656;2024-03-02T00:23:48;4.00;54.50
35607;DHT22;21729;58.392;15.656;2024-03-02T00:26:17;4.00;56.00
35607;DHT22;21729;58.392;15.656;2024-03-02T00:28:44;3.90;59.50
35607;DHT22;21729;58.392;15.656;2024-03-02T00:31:12;3.90;60.60
35607;DHT22;21729;58.392;15.656;2024-03-02T00:33:41;3.90;59.90
35607;DHT22;21729;58.392;15.656;2024-03-02T00:36:10;3.90;68.00
35607;DHT22;21729;58.392;15.656;2024-03-02T00:38:44;3.90;62.40
35607;DHT22;21729;58.392;15.656;2024-03-02T00:41:17;3.90;61.70
35607;DHT22;21729;58.392;15.656;2024-03-02T00:43:55;3.90;62.10
35607;DHT22;21729;58.392;15.656;2024-03-02T00:46:23;3.90;61.70
35607;DHT22;21729;58.392;15.656;2024-03-02T00:48:56;3.90;63.40
35607;DHT22;21729;58.392;15.656;2024-03-02T00:51:25;3.90;63.10
35607;DHT22;21729;58.392;15.656;2024-03-02T00:53:52;3.90;62.20
35607;DHT22;21729;58.392;15.656;2024-03-02T00:56:22;3.90;62.50
35607;DHT22;21729;58.392;15.656;2024-03-02T00:58:49;3.90;62.00
35607;DHT22;21729;58.392;15.656;2024-03-02T01:01:16;3.90;70.10
35607;DHT22;21729;58.392;15.656;2024-03-02T01:03:43;3.90;60.60
35607;DHT22;21729;58.392;15.656;2024-03-02T01:06:12;3.90;60.90
35607;DHT22;21729;58.392;15.656;2024-03-02T01:08:39;3.90;60.30
35607;DHT22;21729;58.392;15.656;2024-03-02T01:11:06;3.90;60.60
35607;DHT22;21729;58.392;15.656;2024-03-02T01:13:33;3.80;58.50
35607;DHT22;21729;58.392;15.656;2024-03-02T01:16:01;3.90;60.80
35607;DHT22;21729;58.392;15.656;2024-03-02T01:18:28;3.80;59.10
35607;DHT22;21729;58.392;15.656;2024-03-02T01:20:56;3.80;59.30
35607;DHT22;21729;58.392;15.656;2024-03-02T01:23:25;3.80;58.80
35607;DHT22;21729;58.392;15.656;2024-03-02T01:25:52;3.80;57.70
35607;DHT22;21729;58.392;15.656;2024-03-02T01:28:19;4.00;56.80
35607;DHT22;21729;58.392;15.656;2024-03-02T01:30:47;3.90;56.70
35607;DHT22;21729;58.392;15.656;2024-03-02T01:33:15;3.80;56.30
35607;DHT22;21729;58.392;15.656;2024-03-02T01:35:42;3.80;56.00
35607;DHT22;21729;58.392;15.656;2024-03-02T01:38:09;3.90;56.60
35607;DHT22;21729;58.392;15.656;2024-03-02T01:40:38;3.90;56.80
35607;DHT22;21729;58.392;15.656;2024-03-02T01:43:06;3.80;57.50
35607;DHT22;21729;58.392;15.656;2024-03-02T01:45:33;3.80;57.10
35607;DHT22;21729;58.392;15.656;2024-03-02T01:48:01;3.80;57.40
35607;DHT22;21729;58.392;15.656;2024-03-02T01:50:28;3.80;58.00
35607;DHT22;21729;58.392;15.656;2024-03-02T01:52:56;3.80;58.00
35607;DHT22;21729;58.392;15.656;2024-03-02T01:55:23;3.80;59.20
35607;DHT22;21729;58.392;15.656;2024-03-02T01:57:52;3.80;59.70
35607;DHT22;21729;58.392;15.656;2024-03-02T02:00:20;3.80;59.00
35607;DHT22;21729;58.392;15.656;2024-03-02T02:02:48;3.80;59.30
35607;DHT22;21729;58.392;15.656;2024-03-02T02:05:16;3.80;60.80
35607;DHT22;21729;58.392;15.656;2024-03-02T02:07:43;3.80;61.70
35607;DHT22;21729;58.392;15.656;2024-03-02T02:10:10;3.80;61.60
35607;DHT22;21729;58.392;15.656;2024-03-02T02:12:38;3.80;60.30
35607;DHT22;21729;58.392;15.656;2024-03-02T02:15:22;3.70;60.70
35607;DHT22;21729;58.392;15.656;2024-03-02T02:17:49;3.70;60.10
35607;DHT22;21729;58.392;15.656;2024-03-02T02:20:17;3.80;61.90
35607;DHT22;21729;58.392;15.656;2024-03-02T02:22:55;3.70;61.70
35607;DHT22;21729;58.392;15.656;2024-03-02T02:25:22;3.70;63.70
35607;DHT22;21729;58.392;15.656;2024-03-02T02:27:50;3.70;65.80
35607;DHT22;21729;58.392;15.656;2024-03-02T02:30:19;3.70;65.60
35607;DHT22;21729;58.392;15.656;2024-03-02T02:32:47;3.70;64.00
35607;DHT22;21729;58.392;15.656;2024-03-02T02:35:14;3.70;67.10
35607;DHT22;21729;58.392;15.656;2024-03-02T02:37:41;3.70;69.00
35607;DHT22;21729;58.392;15.656;2024-03-02T02:40:11;3.70;69.80
35607;DHT22;21729;58.392;15.656;2024-03-02T02:42:39;3.70;72.90
35607;DHT22;21729;58.392;15.656;2024-03-02T02:45:06;3.80;72.90
35607;DHT22;21729;58.392;15.656;2024-03-02T02:47:34;3.70;75.30
35607;DHT22;21729;58.392;15.656;2024-03-02T02:50:02;3.70;74.80
35607;DHT22;21729;58.392;15.656;2024-03-02T02:52:33;3.70;75.70
35607;DHT22;21729;58.392;15.656;2024-03-02T02:55:03;3.70;80.80
35607;DHT22;21729;58.392;15.656;2024-03-02T02:57:33;3.70;83.80
35607;DHT22;21729;58.392;15.656;2024-03-02T03:00:04;3.70;86.40
35607;DHT22;21729;58.392;15.656;2024-03-02T03:02:36;3.70;89.60
35607;DHT22;21729;58.392;15.656;2024-03-02T03:05:04;3.70;90.30
35607;DHT22;21729;58.392;15.656;2024-03-02T03:07:32;3.70;92.50
35607;DHT22;21729;58.392;15.656;2024-03-02T03:09:59;3.70;95.10
35607;DHT22;21729;58.392;15.656;2024-03-02T03:12:26;3.70;96.30
35607;DHT22;21729;58.392;15.656;2024-03-02T03:14:55;3.70;96.90
35607;DHT22;21729;58.392;15.656;2024-03-02T03:17:22;3.70;99.90
35607;DHT22;21729;58.392;15.656;2024-03-02T03:19:49;3.70;99.90
35607;DHT22;21729;58.392;15.656;2024-03-02T03:22:16;3.70;99.90
35607;DHT22;21729;58.392;15.656;2024-03-02T03:24:43;3.70;99.90
35607;DHT22;21729;58.392;15.656;2024-03-02T03:27:11;3.70;99.90
35607;DHT22;21729;58.392;15.656;2024-03-02T03:29:38;3.70;99.90
35607;DHT22;21729;58.392;15.656;2024-03-02T03:32:07;3.60;99.90
35607;DHT22;21729;58.392;15.656;2024-03-02T03:34:34;3.60;99.90
35607;DHT22;21729;58.392;15.656;2024-03-02T03:37:01;3.60;99.90
35607;DHT22;21729;58.392;15.656;2024-03-02T03:39:28;3.60;99.90
35607;DHT22;21729;58.392;15.656;2024-03-02T03:41:55;3.60;99.90
35607;DHT22;21729;58.392;15.656;2024-03-02T03:44:22;3.60;99.90
35607;DHT22;21729;58.392;15.656;2024-03-02T03:46:49;3.60;99.90
35607;DHT22;21729;58.392;15.656;2024-03-02T03:49:18;3.60;99.90
35607;DHT22;21729;58.392;15.656;2024-03-02T03:51:45;3.60;99.90
35607;DHT22;21729;58.392;15.656;2024-03-02T03:54:12;3.60;99.90
35607;DHT22;21729;58.392;15.656;2024-03-02T03:56:39;3.60;99.90
35607;DHT22;21729;58.392;15.656;2024-03-02T03:59:06;3.60;99.90
35607;DHT22;21729;58.392;15.656;2024-03-02T04:01:34;3.60;99.90
35607;DHT22;21729;58.392;15.656;2024-03-02T04:04:01;3.60;99.90
35607;DHT22;21729;58.392;15.656;2024-03-02T04:06:30;3.60;99.90
35607;DHT22;21729;58.392;15.656;2024-03-02T04:08:57;3.70;99.90
35607;DHT22;21729;58.392;15.656;2024-03-02T04:11:24;3.70;99.90
35607;DHT22;21729;58.392;15.656;2024-03-02T04:13:51;3.70;99.90
35607;DHT22;21729;58.392;15.656;2024-03-02T04:16:19;3.70;99.90
35607;DHT22;21729;58.392;15.656;2024-03-02T04:18:46;3.70;99.90
35607;DHT22;21729;58.392;15.656;2024-03-02T04:21:13;3.70;99.90
35607;DHT22;21729;58.392;15.656;2024-03-02T04:23:41;3.70;99.90
35607;DHT22;21729;58.392;15.656;2024-03-02T04:26:08;3.70;99.90
35607;DHT22;21729;58.392;15.656;2024-03-02T04:28:35;3.70;99.90
35607;DHT22;21729;58.392;15.656;2024-03-02T04:31:02;3.70;99.90
35607;DHT22;21729;58.392;15.656;2024-03-02T04:33:29;3.70;99.90
35607;DHT22;21729;58.392;15.656;2024-03-02T04:35:56;3.70;99.90
35607;DHT22;21729;58.392;15.656;2024-03-02T04:38:24;3.70;99.90
35607;DHT22;21729;58.392;15.656;2024-03-02T04:40:52;3.70;99.90
35607;DHT22;21729;58.392;15.656;2024-03-02T04:43:19;3.80;99.90
35607;DHT22;21729;58.392;15.656;2024-03-02T04:45:46;3.70;99.90
35607;DHT22;21729;58.392;15.656;2024-03-02T04:48:13;3.80;99.90
35607;DHT22;21729;58.392;15.656;2024-03-02T04:50:40;3.80;99.90
35607;DHT22;21729;58.392;15.656;2024-03-02T04:53:07;3.80;99.90
35607;DHT22;21729;58.392;15.656;2024-03-02T04:55:35;3.80;99.90
35607;DHT22;21729;58.392;15.656;2024-03-02T04:58:29;3.80;99.90
35607;DHT22;21729;58.392;15.656;2024-03-02T05:00:56;3.80;99.90
35607;DHT22;21729;58.392;15.656;2024-03-02T05:03:23;3.80;99.90
35607;DHT22;21729;58.392;15.656;2024-03-02T05:05:51;3.80;99.90
35607;DHT22;21729;58.392;15.656;2024-03-02T05:08:18;3.80;99.90
35607;DHT22;21729;58.392;15.656;2024-03-02T05:10:45;3.80;99.90
35607;DHT22;21729;58.392;15.656;2024-03-02T05:13:12;3.80;99.90
35607;DHT22;21729;58.392;15.656;2024-03-02T05:15:40;3.80;99.90
35607;DHT22;21729;58.392;15.656;2024-03-02T05:18:07;3.80;99.90
35607;DHT22;21729;58.392;15.656;2024-03-02T05:20:34;3.80;99.90
35607;DHT22;21729;58.392;15.656;2024-03-02T05:23:01;3.80;99.90
35607;DHT22;21729;58.392;15.656;2024-03-02T05:25:28;3.80;99.90
35607;DHT22;21729;58.392;15.656;2024-03-02T05:27:55;3.80;99.90
35607;DHT22;21729;58.392;15.656;2024-03-02T05:30:22;3.80;99.90
35607;DHT22;21729;58.392;15.656;2024-03-02T05:32:53;3.80;99.90
35607;DHT22;21729;58.392;15.656;2024-03-02T05:35:20;3.80;99.90
35607;DHT22;21729;58.392;15.656;2024-03-02T05:37:47;3.80;99.90
35607;DHT22;21729;58.392;15.656;2024-03-02T05:40:14;3.80;99.90
35607;DHT22;21729;58.392;15.656;2024-03-02T05:42:41;3.80;99.90
35607;DHT22;21729;58.392;15.656;2024-03-02T05:45:08;3.80;99.90
35607;DHT22;21729;58.392;15.656;2024-03-02T05:47:41;3.80;99.90
35607;DHT22;21729;58.392;15.656;2024-03-02T05:50:09;3.80;99.90
35607;DHT22;21729;58.392;15.656;2024-03-02T05:52:36;3.80;99.90
35607;DHT22;21729;58.392;15.656;2024-03-02T05:55:05;3.80;99.90
35607;DHT22;21729;58.392;15.656;2024-03-02T05:57:32;3.80;99.90
35607;DHT22;21729;58.392;15.656;2024-03-02T06:00:13;3.80;99.90
35607;DHT22;21729;58.392;15.656;2024-03-02T06:02:42;3.80;99.90
35607;DHT22;21729;58.392;15.656;2024-03-02T06:05:11;3.80;99.90
35607;DHT22;21729;58.392;15.656;2024-03-02T06:07:38;3.80;99.90
35607;DHT22;21729;58.392;15.656;2024-03-02T06:10:06;3.80;99.90
35607;DHT22;21729;58.392;15.656;2024-03-02T06:12:34;4.00;99.90
35607;DHT22;21729;58.392;15.656;2024-03-02T06:15:01;3.80;99.90
35607;DHT22;21729;58.392;15.656;2024-03-02T06:17:29;3.80;99.90
35607;DHT22;21729;58.392;15.656;2024-03-02T06:19:56;3.80;99.90
35607;DHT22;21729;58.392;15.656;2024-03-02T06:22:25;3.80;99.90
35607;DHT22;21729;58.392;15.656;2024-03-02T06:24:52;3.80;99.90
35607;DHT22;21729;58.392;15.656;2024-03-02T06:27:19;3.80;99.90
35607;DHT22;21729;58.392;15.656;2024-03-02T06:29:46;3.80;99.90
35607;DHT22;21729;58.392;15.656;2024-03-02T06:32:14;3.80;99.90
35607;DHT22;21729;58.392;15.656;2024-03-02T06:34:41;3.90;99.90
35607;DHT22;21729;58.392;15.656;2024-03-02T06:37:08;3.80;99.90
35607;DHT22;21729;58.392;15.656;2024-03-02T06:39:37;3.80;99.90
35607;DHT22;21729;58.392;15.656;2024-03-02T06:42:04;3.80;99.90
35607;DHT22;21729;58.392;15.656;2024-03-02T06:44:31;3.80;99.90
35607;DHT22;21729;58.392;15.656;2024-03-02T06:46:58;3.80;99.90
35607;DHT22;21729;58.392;15.656;2024-03-02T06:49:25;3.90;99.90
35607;DHT22;21729;58.392;15.656;2024-03-02T06:51:52;3.80;99.90
35607;DHT22;21729;58.392;15.656;2024-03-02T06:54:19;3.90;99.90
35607;DHT22;21729;58.392;15.656;2024-03-02T06:56:47;3.80;99.90
35607;DHT22;21729;58.392;15.656;2024-03-02T06:59:14;3.80;99.90
35607;DHT22;21729;58.392;15.656;2024-03-02T07:01:41;3.80;99.90
35607;DHT22;21729;58.392;15.656;2024-03-02T07:04:09;3.80;99.90
35607;DHT22;21729;58.392;15.656;2024-03-02T07:06:36;3.80;82.20
35607;DHT22;21729;58.392;15.656;2024-03-02T07:09:03;3.90;82.30
35607;DHT22;21729;58.392;15.656;2024-03-02T07:11:30;3.90;64.40
35607;DHT22;21729;58.392;15.656;2024-03-02T07:13:59;3.90;43.60
35607;DHT22;21729;58.392;15.656;2024-03-02T07:16:26;3.90;42.60
35607;DHT22;21729;58.392;15.656;2024-03-02T07:18:58;3.90;39.50
35607;DHT22;21729;58.392;15.656;2024-03-02T07:21:27;3.90;27.80
35607;DHT22;21729;58.392;15.656;2024-03-02T07:23:54;3.90;25.20
35607;DHT22;21729;58.392;15.656;2024-03-02T07:26:22;4.00;15.30
35607;DHT22;21729;58.392;15.656;2024-03-02T07:28:49;4.00;19.90
35607;DHT22;21729;58.392;15.656;2024-03-02T07:31:17;4.00;8.40
35607;DHT22;21729;58.392;15.656;2024-03-02T07:33:45;4.00;3.00
35607;DHT22;21729;58.392;15.656;2024-03-02T07:36:13;4.00;1.00
35607;DHT22;21729;58.392;15.656;2024-03-02T07:38:40;4.10;1.00
35607;DHT22;21729;58.392;15.656;2024-03-02T07:41:08;4.00;1.00
35607;DHT22;21729;58.392;15.656;2024-03-02T07:43:36;4.00;1.00
35607;DHT22;21729;58.392;15.656;2024-03-02T07:46:04;4.00;1.00
35607;DHT22;21729;58.392;15.656;2024-03-02T07:48:33;4.00;1.00
35607;DHT22;21729;58.392;15.656;2024-03-02T07:51:00;4.00;1.00
35607;DHT22;21729;58.392;15.656;2024-03-02T07:53:28;4.00;1.00
35607;DHT22;21729;58.392;15.656;2024-03-02T07:55:55;4.00;1.00
35607;DHT22;21729;58.392;15.656;2024-03-02T07:58:27;4.00;1.00
35607;DHT22;21729;58.392;15.656;2024-03-02T08:00:54;4.10;1.00
35607;DHT22;21729;58.392;15.656;2024-03-02T08:03:21;4.10;1.00
35607;DHT22;21729;58.392;15.656;2024-03-02T08:05:51;4.10;1.00
35607;DHT22;21729;58.392;15.656;2024-03-02T08:08:18;4.10;1.00
35607;DHT22;21729;58.392;15.656;2024-03-02T08:10:45;4.20;1.00
35607;DHT22;21729;58.392;15.656;2024-03-02T08:13:12;4.20;1.00
35607;DHT22;21729;58.392;15.656;2024-03-02T08:15:39;4.30;1.00
35607;DHT22;21729;58.392;15.656;2024-03-02T08:18:07;4.40;1.00
35607;DHT22;21729;58.392;15.656;2024-03-02T08:20:34;4.40;1.00
35607;DHT22;21729;58.392;15.656;2024-03-02T08:23:03;4.40;1.00
35607;DHT22;21729;58.392;15.656;2024-03-02T08:25:30;4.40;1.00
35607;DHT22;21729;58.392;15.656;2024-03-02T08:27:58;4.60;1.00
35607;DHT22;21729;58.392;15.656;2024-03-02T08:30:25;4.70;1.00
35607;DHT22;21729;58.392;15.656;2024-03-02T08:32:52;4.60;1.00
35607;DHT22;21729;58.392;15.656;2024-03-02T08:35:19;4.60;1.00
35607;DHT22;21729;58.392;15.656;2024-03-02T08:37:48;4.60;1.00
35607;DHT22;21729;58.392;15.656;2024-03-02T08:40:16;4.60;1.00
35607;DHT22;21729;58.392;15.656;2024-03-02T08:42:44;4.60;1.00
35607;DHT22;21729;58.392;15.656;2024-03-02T08:45:11;4.50;1.00
35607;DHT22;21729;58.392;15.656;2024-03-02T08:47:38;4.40;1.00
35607;DHT22;21729;58.392;15.656;2024-03-02T08:50:06;4.40;1.00
35607;DHT22;21729;58.392;15.656;2024-03-02T08:52:34;4.40;1.00
35607;DHT22;21729;58.392;15.656;2024-03-02T08:55:01;4.40;1.00
35607;DHT22;21729;58.392;15.656;2024-03-02T08:57:29;4.40;1.00
35607;DHT22;21729;58.392;15.656;2024-03-02T08:59:57;4.40;1.00
35607;DHT22;21729;58.392;15.656;2024-03-02T09:02:24;4.40;1.00
35607;DHT22;21729;58.392;15.656;2024-03-02T09:04:51;4.40;1.00
35607;DHT22;21729;58.392;15.656;2024-03-02T09:07:18;4.50;1.00
35607;DHT22;21729;58.392;15.656;2024-03-02T09:09:45;4.40;1.00
35607;DHT22;21729;58.392;15.656;2024-03-02T09:12:12;4.40;1.00
35607;DHT22;21729;58.392;15.656;2024-03-02T09:14:41;4.50;1.00
35607;DHT22;21729;58.392;15.656;2024-03-02T09:17:08;4.40;1.00
35607;DHT22;21729;58.392;15.656;2024-03-02T09:19:37;4.50;1.00
35607;DHT22;21729;58.392;15.656;2024-03-02T09:22:04;4.50;1.00
35607;DHT22;21729;58.392;15.656;2024-03-02T09:24:32;4.50;1.00
35607;DHT22;21729;58.392;15.656;2024-03-02T09:26:59;4.40;1.00
35607;DHT22;21729;58.392;15.656;2024-03-02T09:29:26;4.40;1.00
35607;DHT22;21729;58.392;15.656;2024-03-02T09:31:55;4.50;1.00
35607;DHT22;21729;58.392;15.656;2024-03-02T09:34:22;4.50;1.00
35607;DHT22;21729;58.392;15.656;2024-03-02T09:36:50;4.40;1.00
35607;DHT22;21729;58.392;15.656;2024-03-02T09:39:18;4.50;1.00
35607;DHT22;21729;58.392;15.656;2024-03-02T09:41:45;4.50;1.00
35607;DHT22;21729;58.392;15.656;2024-03-02T09:44:12;4.50;1.00
35607;DHT22;21729;58.392;15.656;2024-03-02T09:46:40;4.50;1.00
35607;DHT22;21729;58.392;15.656;2024-03-02T09:49:11;4.50;1.00
35607;DHT22;21729;58.392;15.656;2024-03-02T09:51:38;4.50;1.00
35607;DHT22;21729;58.392;15.656;2024-03-02T09:54:07;4.50;1.00
35607;DHT22;21729;58.392;15.656;2024-03-02T09:56:35;4.60;1.00
35607;DHT22;21729;58.392;15.656;2024-03-02T09:59:02;4.60;1.00
35607;DHT22;21729;58.392;15.656;2024-03-02T10:01:29;4.60;1.00
35607;DHT22;21729;58.392;15.656;2024-03-02T10:03:58;4.60;1.00
35607;DHT22;21729;58.392;15.656;2024-03-02T10:06:28;4.80;1.00
35607;DHT22;21729;58.392;15.656;2024-03-02T10:08:56;4.90;1.00
35607;DHT22;21729;58.392;15.656;2024-03-02T10:11:27;4.80;1.00
35607;DHT22;21729;58.392;15.656;2024-03-02T10:14:07;4.90;1.00
35607;DHT22;21729;58.392;15.656;2024-03-02T10:16:36;5.00;1.00
35607;DHT22;21729;58.392;15.656;2024-03-02T10:19:16;5.00;1.00
35607;DHT22;21729;58.392;15.656;2024-03-02T10:21:46;4.90;99.90
35607;DHT22;21729;58.392;15.656;2024-03-02T10:24:13;4.90;99.90
35607;DHT22;21729;58.392;15.656;2024-03-02T10:26:40;4.80;1.00
35607;DHT22;21729;58.392;15.656;2024-03-02T10:29:08;4.90;1.00
35607;DHT22;21729;58.392;15.656;2024-03-02T10:31:37;4.90;1.00
35607;DHT22;21729;58.392;15.656;2024-03-02T10:34:04;5.00;1.00
35607;DHT22;21729;58.392;15.656;2024-03-02T10:36:32;5.00;1.00
35607;DHT22;21729;58.392;15.656;2024-03-02T10:39:03;5.00;1.00
35607;DHT22;21729;58.392;15.656;2024-03-02T10:41:33;4.90;1.00
35607;DHT22;21729;58.392;15.656;2024-03-02T10:44:02;4.90;1.00
35607;DHT22;21729;58.392;15.656;2024-03-02T10:46:31;5.00;1.00
35607;DHT22;21729;58.392;15.656;2024-03-02T10:48:58;5.00;1.00
35607;DHT22;21729;58.392;15.656;2024-03-02T10:51:26;5.00;1.00
35607;DHT22;21729;58.392;15.656;2024-03-02T10:53:54;5.00;1.00
35607;DHT22;21729;58.392;15.656;2024-03-02T10:56:28;5.00;1.00
35607;DHT22;21729;58.392;15.656;2024-03-02T10:59:02;5.00;1.00
35607;DHT22;21729;58.392;15.656;2024-03-02T11:01:31;5.00;1.00
35607;DHT22;21729;58.392;15.656;2024-03-02T11:03:59;5.00;1.00
35607;DHT22;21729;58.392;15.656;2024-03-02T11:06:28;4.90;1.00
35607;DHT22;21729;58.392;15.656;2024-03-02T11:09:00;4.90;1.00
35607;DHT22;21729;58.392;15.656;2024-03-02T11:11:32;4.90;1.00
35607;DHT22;21729;58.392;15.656;2024-03-02T11:14:04;4.90;1.00
35607;DHT22;21729;58.392;15.656;2024-03-02T11:16:36;4.80;1.00
35607;DHT22;21729;58.392;15.656;2024-03-02T11:19:05;4.70;1.00
35607;DHT22;21729;58.392;15.656;2024-03-02T11:21:33;4.70;1.00
35607;DHT22;21729;58.392;15.656;2024-03-02T11:24:00;4.70;1.00
35607;DHT22;21729;58.392;15.656;2024-03-02T11:26:28;4.80;1.00
35607;DHT22;21729;58.392;15.656;2024-03-02T11:28:57;4.80;1.00
35607;DHT22;21729;58.392;15.656;2024-03-02T11:31:58;4.80;1.00
35607;DHT22;21729;58.392;15.656;2024-03-02T11:34:29;4.80;1.00
35607;DHT22;21729;58.392;15.656;2024-03-02T11:36:57;4.80;1.00
35607;DHT22;21729;58.392;15.656;2024-03-02T11:39:25;4.80;1.00
35607;DHT22;21729;58.392;15.656;2024-03-02T11:41:52;4.90;1.00
35607;DHT22;21729;58.392;15.656;2024-03-02T11:44:22;4.80;1.00
35607;DHT22;21729;58.392;15.656;2024-03-02T11:46:53;4.90;1.00
35607;DHT22;21729;58.392;15.656;2024-03-02T11:49:37;4.90;1.00
35607;DHT22;21729;58.392;15.656;2024-03-02T11:52:05;4.90;1.00
35607;DHT22;21729;58.392;15.656;2024-03-02T11:54:33;4.90;1.00
35607;DHT22;21729;58.392;15.656;2024-03-02T11:57:02;4.90;1.00
35607;DHT22;21729;58.392;15.656;2024-03-02T11:59:31;4.90;1.00
35607;DHT22;21729;58.392;15.656;2024-03-02T12:01:58;4.90;1.00
35607;DHT22;21729;58.392;15.656;2024-03-02T12:04:26;4.90;1.00
35607;DHT22;21729;58.392;15.656;2024-03-02T12:06:58;4.90;1.00
35607;DHT22;21729;58.392;15.656;2024-03-02T12:09:26;4.90;1.00
35607;DHT22;21729;58.392;15.656;2024-03-02T12:12:04;4.90;1.00
35607;DHT22;21729;58.392;15.656;2024-03-02T12:14:34;4.90;1.00
35607;DHT22;21729;58.392;15.656;2024-03-02T12:17:01;4.90;1.00
35607;DHT22;21729;58.392;15.656;2024-03-02T12:19:29;4.90;1.00
35607;DHT22;21729;58.392;15.656;2024-03-02T12:21:55;4.90;1.00
35607;DHT22;21729;58.392;15.656;2024-03-02T12:24:23;5.00;1.00
35607;DHT22;21729;58.392;15.656;2024-03-02T12:26:50;4.90;1.00
35607;DHT22;21729;58.392;15.656;2024-03-02T12:29:19;4.90;1.00
35607;DHT22;21729;58.392;15.656;2024-03-02T12:31:49;4.90;1.00
35607;DHT22;21729;58.392;15.656;2024-03-02T12:34:17;5.00;1.00
35607;DHT22;21729;58.392;15.656;2024-03-02T12:36:45;5.00;1.00
35607;DHT22;21729;58.392;15.656;2024-03-02T12:39:15;5.10;1.00
35607;DHT22;21729;58.392;15.656;2024-03-02T12:41:42;5.10;1.00
35607;DHT22;21729;58.392;15.656;2024-03-02T12:44:09;5.10;1.00
35607;DHT22;21729;58.392;15.656;2024-03-02T12:46:36;5.10;1.00
35607;DHT22;21729;58.392;15.656;2024-03-02T12:49:09;5.00;1.00
35607;DHT22;21729;58.392;15.656;2024-03-02T12:51:37;5.00;1.00
35607;DHT22;21729;58.392;15.656;2024-03-02T12:54:06;5.10;1.00
35607;DHT22;21729;58.392;15.656;2024-03-02T12:56:34;5.10;1.00
35607;DHT22;21729;58.392;15.656;2024-03-02T12:59:02;5.10;1.00
35607;DHT22;21729;58.392;15.656;2024-03-02T13:01:29;5.10;1.00
35607;DHT22;21729;58.392;15.656;2024-03-02T13:03:58;5.10;1.00
35607;DHT22;21729;58.392;15.656;2024-03-02T13:06:27;5.10;1.00
35607;DHT22;21729;58.392;15.656;2024-03-02T13:08:54;5.10;1.00
35607;DHT22;21729;58.392;15.656;2024-03-02T13:11:22;5.10;1.00
35607;DHT22;21729;58.392;15.656;2024-03-02T13:13:50;5.10;1.00
35607;DHT22;21729;58.392;15.656;2024-03-02T13:16:18;5.10;1.00
35607;DHT22;21729;58.392;15.656;2024-03-02T13:18:46;5.10;1.00
35607;DHT22;21729;58.392;15.656;2024-03-02T13:21:13;5.10;1.00
35607;DHT22;21729;58.392;15.656;2024-03-02T13:23:41;5.10;1.00
35607;DHT22;21729;58.392;15.656;2024-03-02T13:26:08;5.10;1.00
35607;DHT22;21729;58.392;15.656;2024-03-02T13:28:38;5.00;1.00
35607;DHT22;21729;58.392;15.656;2024-03-02T13:31:05;5.00;1.00
35607;DHT22;21729;58.392;15.656;2024-03-02T13:33:33;5.00;1.00
35607;DHT22;21729;58.392;15.656;2024-03-02T13:36:00;5.00;1.00
35607;DHT22;21729;58.392;15.656;2024-03-02T13:38:28;5.00;1.00
35607;DHT22;21729;58.392;15.656;2024-03-02T13:40:57;4.90;99.90
35607;DHT22;21729;58.392;15.656;2024-03-02T13:43:26;4.90;1.00
35607;DHT22;21729;58.392;15.656;2024-03-02T13:45:53;4.90;1.00
35607;DHT22;21729;58.392;15.656;2024-03-02T13:48:20;5.00;1.00
35607;DHT22;21729;58.392;15.656;2024-03-02T13:50:47;5.00;1.00
35607;DHT22;21729;58.392;15.656;2024-03-02T13:53:14;5.00;1.40
35607;DHT22;21729;58.392;15.656;2024-03-02T13:55:41;5.00;1.00
35607;DHT22;21729;58.392;15.656;2024-03-02T13:58:10;4.90;1.00
35607;DHT22;21729;58.392;15.656;2024-03-02T14:00:38;4.80;1.00
35607;DHT22;21729;58.392;15.656;2024-03-02T14:03:06;4.90;1.00
35607;DHT22;21729;58.392;15.656;2024-03-02T14:05:34;4.90;1.00
35607;DHT22;21729;58.392;15.656;2024-03-02T14:08:01;4.80;1.00
35607;DHT22;21729;58.392;15.656;2024-03-02T14:10:28;4.80;1.00
35607;DHT22;21729;58.392;15.656;2024-03-02T14:12:55;4.80;1.00
35607;DHT22;21729;58.392;15.656;2024-03-02T14:15:23;4.80;1.00
35607;DHT22;21729;58.392;15.656;2024-03-02T14:17:51;4.80;1.00
35607;DHT22;21729;58.392;15.656;2024-03-02T14:20:18;4.80;1.00
35607;DHT22;21729;58.392;15.656;2024-03-02T14:22:48;4.70;1.00
35607;DHT22;21729;58.392;15.656;2024-03-02T14:25:17;4.70;1.00
35607;DHT22;21729;58.392;15.656;2024-03-02T14:27:44;4.70;1.00
35607;DHT22;21729;58.392;15.656;2024-03-02T14:30:13;4.70;1.00
35607;DHT22;21729;58.392;15.656;2024-03-02T14:32:41;4.70;1.00
35607;DHT22;21729;58.392;15.656;2024-03-02T14:35:08;4.60;1.00
35607;DHT22;21729;58.392;15.656;2024-03-02T14:37:37;4.70;1.00
35607;DHT22;21729;58.392;15.656;2024-03-02T14:40:05;4.70;1.00
35607;DHT22;21729;58.392;15.656;2024-03-02T14:42:35;4.70;1.00
35607;DHT22;21729;58.392;15.656;2024-03-02T14:45:02;4.70;1.00
35607;DHT22;21729;58.392;15.656;2024-03-02T14:47:31;4.70;1.00
35607;DHT22;21729;58.392;15.656;2024-03-02T14:50:00;4.70;1.00
35607;DHT22;21729;58.392;15.656;2024-03-02T14:52:30;4.60;1.00
35607;DHT22;21729;58.392;15.656;2024-03-02T14:54:57;4.60;1.00
35607;DHT22;21729;58.392;15.656;2024-03-02T14:57:24;4.60;1.00
35607;DHT22;21729;58.392;15.656;2024-03-02T14:59:51;4.70;1.00
35607;DHT22;21729;58.392;15.656;2024-03-02T15:02:20;4.60;1.00
35607;DHT22;21729;58.392;15.656;2024-03-02T15:04:47;4.60;1.00
35607;DHT22;21729;58.392;15.656;2024-03-02T15:07:16;4.60;1.00
35607;DHT22;21729;58.392;15.656;2024-03-02T15:09:43;4.60;1.00
35607;DHT22;21729;58.392;15.656;2024-03-02T15:12:10;4.60;1.00
35607;DHT22;21729;58.392;15.656;2024-03-02T15:14:38;4.60;1.00
35607;DHT22;21729;58.392;15.656;2024-03-02T15:17:12;4.60;1.00
35607;DHT22;21729;58.392;15.656;2024-03-02T15:19:41;4.60;1.00
35607;DHT22;21729;58.392;15.656;2024-03-02T15:22:08;4.60;1.00
35607;DHT22;21729;58.392;15.656;2024-03-02T15:24:37;4.50;1.00
35607;DHT22;21729;58.392;15.656;2024-03-02T15:27:04;4.50;1.00
35607;DHT22;21729;58.392;15.656;2024-03-02T15:29:34;4.50;1.00
35607;DHT22;21729;58.392;15.656;2024-03-02T15:32:01;4.50;1.00
35607;DHT22;21729;58.392;15.656;2024-03-02T15:34:30;4.50;1.00
35607;DHT22;21729;58.392;15.656;2024-03-02T15:36:58;4.50;1.00
35607;DHT22;21729;58.392;15.656;2024-03-02T15:39:25;4.50;1.00
35607;DHT22;21729;58.392;15.656;2024-03-02T15:41:54;4.50;1.00
35607;DHT22;21729;58.392;15.656;2024-03-02T15:44:21;4.50;1.00